CheckWX is a tool to help pilots better visualize weather data.  It is not intended as a substitute for an official pre-flight weather briefing.

01:04:10 UTC

KELA METAR
Eagle Lake Airport
Eagle Lake, Texas, USA
Current

29 mins ago

KELA 060035Z AUTO 15005KT 10SM CLR 21/17 A2998 RMK AO2 T02100172
Observed
Dec-6 @ 00:35 UTC
Wind
  • 150° at 5 KTS
Visibility
10 SM
Flight Rules
VFR
Cloud Levels
  • Clear skies
Temperature
21°C / 70°F
Dewpoint
17°C / 63°F
Humidity
78%
Altimeter
29.98" Hg
Pressure
1015.22 hPa
Previous

49 mins ago

KELA 060015Z AUTO 17007KT 10SM CLR 21/17 A2997 RMK AO2 T02120171
Observed
Dec-6 @ 00:15 UTC
Wind
  • 170° at 7 KTS
Visibility
10 SM
Flight Rules
VFR
Cloud Levels
  • Clear skies
Temperature
21°C / 70°F
Dewpoint
17°C / 63°F
Humidity
78%
Altimeter
29.97" Hg
Pressure
1014.92 hPa
Previous

1 hour ago

KELA 052355Z AUTO 17006KT 10SM CLR 22/17 A2997 RMK AO2 T02150170 10261 20215
Observed
Dec-5 @ 23:55 UTC
Wind
  • 170° at 6 KTS
Visibility
10 SM
Flight Rules
VFR
Cloud Levels
  • Clear skies
Temperature
22°C / 72°F
Dewpoint
17°C / 63°F
Humidity
73%
Altimeter
29.97" Hg
Pressure
1014.92 hPa